Takeley, United Kingdom
Current Conditions -  °F | °C
As of 8:50 PM on Thursday 27 Nov 2014 (Local Time) from EGSS Reporting Station
Haze Haze  
Wind Chill: 45°   Ceiling: Unl
Heat Index: 48°   Visibility: 2.1mi
Dew Point: 48°   Wind: 8mph
Humidity: 100%   Direction: 120°ESE
Pressure: 29.62"   Gusts: NA
Location:  51.87°N, 0.27°E
Report Text: EGSS 272050Z 12007KT 100V190 3500 BR SCT015 SCT042 09/09 Q1003
Loading
Personal Weather Stations






























Interactive Weather Map New forecast layout! Learn more

10-Day Weather Forecast

Advertisements
Track Severe Weather on mobile